Time;durP1;ratioP1;P1;durP2;ratioP2;P2;SDS_P1;SDS_P2;PMS_P1;PMS_P2;Temp;Humidity;BMP_temperature;BMP_pressure;BME280_temperature;BME280_humidity;BME280_pressure;Samples;Min_cycle;Max_cycle;Signal;HPM_P1;HPM_P2
2022/04/11 00:00:31;;;;;;;5.18;3.25;;;0.10;99.90;;;;;;5000831;28;20045;-84
2022/04/11 00:02:57;;;;;;;6.88;3.22;;;0.00;99.90;;;;;;5032889;28;20550;-84
2022/04/11 00:05:23;;;;;;;4.20;2.78;;;0.00;99.90;;;;;;5016702;28;20033;-83
2022/04/11 00:07:49;;;;;;;5.45;2.95;;;0.00;99.90;;;;;;5032329;28;20045;-84
2022/04/11 00:10:15;;;;;;;5.90;2.65;;;0.00;99.90;;;;;;5030697;28;20614;-84
2022/04/11 00:12:41;;;;;;;7.93;3.10;;;-0.10;99.90;;;;;;5018263;28;20056;-83
2022/04/11 00:15:08;;;;;;;6.85;2.60;;;-0.20;99.90;;;;;;5015612;28;20037;-84
2022/04/11 00:17:34;;;;;;;6.90;2.67;;;-0.20;99.90;;;;;;5033640;28;20063;-83
2022/04/11 00:20:00;;;;;;;6.40;2.78;;;-0.30;99.90;;;;;;5000294;28;20056;-84
2022/04/11 00:22:28;;;;;;;8.27;2.60;;;-0.20;99.90;;;;;;5021095;28;20061;-83
2022/04/11 00:24:53;;;;;;;5.53;2.47;;;-0.30;99.90;;;;;;5029249;28;20113;-83
2022/04/11 00:27:19;;;;;;;3.42;1.98;;;-0.30;99.90;;;;;;5008265;28;20512;-83
2022/04/11 00:29:45;;;;;;;4.82;2.53;;;-0.40;99.90;;;;;;5020319;28;20053;-83
2022/04/11 00:32:11;;;;;;;2.38;1.88;;;-0.40;99.90;;;;;;5031733;28;20037;-84
2022/04/11 00:34:37;;;;;;;6.65;2.30;;;-0.40;99.90;;;;;;5017952;28;20098;-83
2022/04/11 00:37:03;;;;;;;3.78;1.90;;;-0.40;99.90;;;;;;4999774;28;20052;-85
2022/04/11 00:39:28;;;;;;;6.18;2.30;;;-0.40;99.90;;;;;;5000410;28;20056;-84
2022/04/11 00:41:54;;;;;;;4.28;2.08;;;-0.40;99.90;;;;;;5019299;28;20482;-84
2022/04/11 00:44:19;;;;;;;5.95;2.30;;;-0.50;99.90;;;;;;5000427;28;20116;-84
2022/04/11 00:46:45;;;;;;;4.32;2.00;;;-0.50;99.90;;;;;;5019880;28;20090;-85
2022/04/11 00:49:11;;;;;;;6.28;2.40;;;-0.50;99.90;;;;;;5036200;28;20052;-84
2022/04/11 00:51:38;;;;;;;6.00;2.42;;;-0.40;99.90;;;;;;5020080;28;20047;-85
2022/04/11 00:54:04;;;;;;;6.00;2.22;;;-0.50;99.90;;;;;;5016416;28;20045;-84
2022/04/11 00:56:30;;;;;;;6.70;2.13;;;-0.60;99.90;;;;;;5036412;28;20100;-82
2022/04/11 00:59:03;;;;;;;8.55;2.53;;;-0.60;99.90;;;;;;5039865;28;20053;-83
2022/04/11 01:01:30;;;;;;;6.97;2.60;;;-0.70;99.90;;;;;;5036772;28;20053;-84
2022/04/11 01:03:56;;;;;;;4.03;2.50;;;-0.70;99.90;;;;;;5031732;28;20372;-84
2022/04/11 01:06:22;;;;;;;6.35;2.47;;;-0.70;99.90;;;;;;5002220;28;20095;-83
2022/04/11 01:08:48;;;;;;;7.25;2.60;;;-0.70;99.90;;;;;;5036486;28;20048;-83
2022/04/11 01:11:13;;;;;;;4.90;2.28;;;-0.70;99.90;;;;;;5035594;28;20045;-83
2022/04/11 01:13:44;;;;;;;4.45;2.70;;;-0.70;99.90;;;;;;5036642;28;20053;-84
2022/04/11 01:16:09;;;;;;;5.65;2.70;;;-0.70;99.90;;;;;;5014518;28;20659;-83
2022/04/11 01:18:36;;;;;;;4.80;2.88;;;-0.70;99.90;;;;;;5008558;28;20155;-83
2022/04/11 01:21:03;;;;;;;5.82;3.28;;;-0.70;99.90;;;;;;5019434;28;20049;-84
2022/04/11 01:23:29;;;;;;;7.90;3.03;;;-0.70;99.90;;;;;;5019915;28;20045;-84
2022/04/11 01:25:56;;;;;;;5.53;3.05;;;-0.70;99.90;;;;;;5001748;28;20071;-84
2022/04/11 01:28:23;;;;;;;6.95;3.20;;;-0.70;99.90;;;;;;5019567;28;20529;-82
2022/04/11 01:30:54;;;;;;;8.93;3.08;;;-0.70;99.90;;;;;;5026709;28;20049;-83
2022/04/11 01:33:23;;;;;;;7.82;2.95;;;-0.70;99.90;;;;;;5037366;28;20040;-83
2022/04/11 01:35:49;;;;;;;6.38;3.47;;;-0.70;99.90;;;;;;5037443;28;20432;-83
2022/04/11 01:38:14;;;;;;;4.35;2.88;;;-0.70;99.90;;;;;;5006223;28;20045;-84
2022/04/11 01:40:54;;;;;;;8.85;3.28;;;-0.70;99.90;;;;;;5009038;28;20041;-84
2022/04/11 01:43:21;;;;;;;6.55;2.80;;;-0.70;99.90;;;;;;5018726;28;20044;-83
2022/04/11 01:45:47;;;;;;;6.78;3.10;;;-0.70;99.90;;;;;;5017752;28;20052;-83
2022/04/11 01:48:13;;;;;;;6.22;2.75;;;-0.80;99.90;;;;;;5017723;28;20111;-84
2022/04/11 01:50:38;;;;;;;5.85;2.58;;;-0.80;99.90;;;;;;5035166;28;20072;-84
2022/04/11 01:53:24;;;;;;;6.75;2.72;;;-0.70;99.90;;;;;;4986031;28;20053;-83
2022/04/11 01:55:50;;;;;;;7.18;3.17;;;-0.70;99.90;;;;;;5017483;28;20091;-83
2022/04/11 01:58:15;;;;;;;4.85;3.53;;;-0.70;99.90;;;;;;5030122;28;20083;-84
2022/04/11 02:00:41;;;;;;;4.85;3.05;;;-0.70;99.90;;;;;;5034299;28;20053;-84
2022/04/11 02:03:09;;;;;;;5.55;3.20;;;-0.70;99.90;;;;;;5035153;28;20379;-84
2022/04/11 02:05:35;;;;;;;6.03;2.67;;;-0.70;99.90;;;;;;5002171;28;20486;-84
2022/04/11 02:08:00;;;;;;;4.65;2.63;;;-0.80;99.90;;;;;;5017183;28;20055;-84
2022/04/11 02:10:27;;;;;;;4.68;2.20;;;-0.80;99.90;;;;;;5019010;28;20402;-83
2022/04/11 02:12:53;;;;;;;4.78;2.33;;;-0.80;99.90;;;;;;5031441;28;20514;-84
2022/04/11 02:15:19;;;;;;;5.97;2.40;;;-0.80;99.90;;;;;;5015296;28;20057;-84
2022/04/11 02:17:50;;;;;;;5.95;2.30;;;-0.80;99.90;;;;;;4999004;28;20487;-83
2022/04/11 02:20:16;;;;;;;3.72;1.77;;;-0.80;99.90;;;;;;5014659;28;20474;-84
2022/04/11 02:22:55;;;;;;;2.33;1.70;;;-0.70;99.90;;;;;;5030896;28;20041;-83
2022/04/11 02:25:22;;;;;;;3.58;1.73;;;-0.70;99.90;;;;;;5019890;28;20128;-83
2022/04/11 02:27:49;;;;;;;3.05;1.55;;;-0.70;99.90;;;;;;5021288;28;20063;-85
2022/04/11 02:30:16;;;;;;;2.88;1.60;;;-0.70;99.90;;;;;;5017599;28;20053;-83
2022/04/11 02:32:42;;;;;;;3.88;1.48;;;-0.70;99.90;;;;;;5036550;28;20040;-83
2022/04/11 02:35:09;;;;;;;4.47;1.85;;;-0.70;99.90;;;;;;5013784;28;20045;-85
2022/04/11 02:37:34;;;;;;;3.70;1.60;;;-0.70;99.90;;;;;;5014630;28;20057;-83
2022/04/11 02:40:01;;;;;;;3.25;1.50;;;-0.70;99.90;;;;;;5011123;28;20056;-83
2022/04/11 02:42:29;;;;;;;4.75;2.00;;;-0.70;99.90;;;;;;5032024;28;20041;-84
2022/04/11 02:44:55;;;;;;;6.30;2.08;;;-0.70;99.90;;;;;;5014707;28;20128;-83
2022/04/11 02:47:21;;;;;;;3.95;1.67;;;-0.60;99.90;;;;;;5016593;28;20052;-83
2022/04/11 02:49:46;;;;;;;8.00;2.40;;;-0.70;99.90;;;;;;4993939;28;20049;-83
2022/04/11 02:52:13;;;;;;;4.50;1.58;;;-0.70;99.90;;;;;;4992251;28;20042;-83
2022/04/11 02:54:39;;;;;;;3.47;1.70;;;-0.80;99.90;;;;;;5014985;28;20045;-83
2022/04/11 02:57:06;;;;;;;3.15;1.73;;;-0.80;99.90;;;;;;5014057;28;20067;-84
2022/04/11 02:59:33;;;;;;;4.80;1.63;;;-0.80;99.90;;;;;;5032977;28;20567;-84
2022/04/11 03:01:59;;;;;;;4.47;1.60;;;-0.90;99.90;;;;;;5039052;28;20045;-86
2022/04/11 03:04:26;;;;;;;5.78;1.92;;;-0.90;99.90;;;;;;5029636;28;20041;-84
2022/04/11 03:06:52;;;;;;;3.90;1.58;;;-0.90;99.90;;;;;;5030993;28;20049;-84
2022/04/11 03:09:18;;;;;;;6.57;2.22;;;-0.90;99.90;;;;;;5014162;28;20049;-84
2022/04/11 03:11:44;;;;;;;4.05;1.88;;;-0.90;99.90;;;;;;5013935;28;20410;-83
2022/04/11 03:14:09;;;;;;;2.78;1.60;;;-1.00;99.90;;;;;;5020861;28;20081;-83
2022/04/11 03:16:35;;;;;;;6.93;3.13;;;-1.10;99.90;;;;;;5011112;28;20060;-84
2022/04/11 03:19:00;;;;;;;4.75;2.55;;;-1.10;99.90;;;;;;5030788;28;20095;-87
2022/04/11 03:21:26;;;;;;;7.28;3.20;;;-1.10;99.90;;;;;;5030668;28;20091;-84
2022/04/11 03:23:52;;;;;;;6.43;3.28;;;-1.10;99.90;;;;;;5009580;28;20041;-83
2022/04/11 03:26:17;;;;;;;5.43;2.60;;;-1.10;99.90;;;;;;5013273;28;20037;-83
2022/04/11 03:28:43;;;;;;;6.20;2.00;;;-1.10;99.90;;;;;;4994412;28;20079;-83
2022/04/11 03:31:09;;;;;;;3.78;1.98;;;-1.10;99.90;;;;;;4990091;28;20060;-85
2022/04/11 03:33:34;;;;;;;5.40;1.63;;;-1.10;99.90;;;;;;5040625;28;20049;-84
2022/04/11 03:36:00;;;;;;;4.25;2.13;;;-1.10;99.90;;;;;;5015834;28;20099;-86
2022/04/11 03:38:26;;;;;;;7.60;1.98;;;-1.10;99.90;;;;;;4997205;28;20049;-84
2022/04/11 03:40:52;;;;;;;3.78;2.10;;;-1.00;99.90;;;;;;5013911;28;20051;-83
2022/04/11 03:43:17;;;;;;;4.70;1.88;;;-0.90;99.90;;;;;;5029808;28;20057;-84
2022/04/11 03:45:43;;;;;;;6.22;2.13;;;-0.80;99.90;;;;;;4996824;28;20045;-84
2022/04/11 03:48:08;;;;;;;4.75;2.00;;;-0.70;99.90;;;;;;5017898;28;20104;-85
2022/04/11 03:50:34;;;;;;;3.67;1.50;;;-0.60;99.90;;;;;;4994452;28;20096;-84
2022/04/11 03:53:00;;;;;;;6.30;2.13;;;-0.50;99.90;;;;;;5003278;28;20073;-84
2022/04/11 03:55:25;;;;;;;4.25;1.73;;;-0.40;99.90;;;;;;5013399;28;20079;-84
2022/04/11 03:57:51;;;;;;;5.72;1.95;;;-0.30;99.90;;;;;;5017782;28;20041;-83
2022/04/11 04:00:17;;;;;;;5.50;2.35;;;-0.20;99.90;;;;;;5030284;28;20053;-83
2022/04/11 04:02:46;;;;;;;3.92;2.33;;;-0.20;99.90;;;;;;5030222;28;20053;-83
2022/04/11 04:05:12;;;;;;;6.55;1.65;;;-0.10;99.90;;;;;;5028965;28;20471;-82
2022/04/11 04:07:37;;;;;;;3.42;1.70;;;0.00;99.90;;;;;;5023117;28;20049;-84
2022/04/11 04:10:04;;;;;;;5.85;2.20;;;0.00;99.90;;;;;;5028197;28;20057;-87
2022/04/11 04:12:31;;;;;;;2.83;1.70;;;0.10;99.90;;;;;;4994833;28;20049;-84
2022/04/11 04:14:57;;;;;;;5.10;2.13;;;0.10;99.90;;;;;;5013086;28;20053;-83
2022/04/11 04:17:23;;;;;;;6.30;2.00;;;0.20;99.90;;;;;;5011585;28;20758;-84
2022/04/11 04:19:48;;;;;;;5.18;2.08;;;0.10;99.90;;;;;;5028577;28;20734;-85
2022/04/11 04:22:15;;;;;;;6.85;1.75;;;0.10;99.90;;;;;;4997230;28;20089;-84
2022/04/11 04:24:41;;;;;;;4.50;1.90;;;0.20;99.90;;;;;;5012326;28;20048;-83
2022/04/11 04:27:07;;;;;;;3.88;2.00;;;0.20;99.90;;;;;;5028856;28;20128;-85
2022/04/11 04:29:34;;;;;;;5.03;1.92;;;0.20;99.90;;;;;;5012304;28;20750;-83
2022/04/11 04:32:00;;;;;;;4.25;2.10;;;0.30;99.90;;;;;;5012573;28;20052;-83
2022/04/11 04:34:25;;;;;;;4.22;2.10;;;0.30;99.90;;;;;;5046204;28;20607;-84
2022/04/11 04:36:52;;;;;;;5.53;1.85;;;0.30;99.90;;;;;;5036847;28;20136;-84
2022/04/11 04:39:18;;;;;;;6.00;2.42;;;0.30;99.90;;;;;;5028907;28;20077;-84
2022/04/11 04:41:44;;;;;;;5.53;2.47;;;0.40;99.90;;;;;;5025683;28;20081;-84
2022/04/11 04:44:09;;;;;;;5.38;1.92;;;0.40;99.90;;;;;;5005449;28;20049;-86
2022/04/11 04:46:35;;;;;;;4.93;2.17;;;0.50;99.90;;;;;;5028787;28;20132;-83
2022/04/11 04:49:02;;;;;;;5.80;1.98;;;0.60;99.90;;;;;;4997379;28;20050;-83
2022/04/11 04:51:29;;;;;;;5.00;2.03;;;0.60;99.90;;;;;;5013427;28;20052;-83
2022/04/11 04:53:55;;;;;;;4.88;2.00;;;0.70;99.90;;;;;;5029243;28;20092;-84
2022/04/11 04:56:21;;;;;;;5.10;1.70;;;0.70;99.90;;;;;;5026266;28;20129;-83
2022/04/11 04:58:47;;;;;;;2.95;1.83;;;0.70;99.90;;;;;;5011375;28;20180;-84
2022/04/11 05:01:13;;;;;;;3.55;1.65;;;0.80;99.90;;;;;;5020531;28;20132;-84
2022/04/11 05:03:39;;;;;;;5.95;2.63;;;0.90;99.90;;;;;;5022616;28;20126;-84
2022/04/11 05:06:05;;;;;;;2.95;1.60;;;0.90;99.90;;;;;;5004825;28;20133;-84
2022/04/11 05:08:32;;;;;;;3.35;1.60;;;0.90;99.90;;;;;;5029064;28;20060;-84
2022/04/11 05:10:58;;;;;;;4.40;2.10;;;1.00;99.90;;;;;;5013602;28;20097;-84
2022/04/11 05:13:24;;;;;;;43.33;26.23;;;1.00;99.90;;;;;;5012446;28;20160;-83
2022/04/11 05:15:50;;;;;;;7.20;3.97;;;1.00;99.90;;;;;;5012698;28;20132;-84
2022/04/11 05:18:15;;;;;;;5.05;3.35;;;1.10;99.90;;;;;;5029621;28;20088;-84
2022/04/11 05:20:42;;;;;;;7.65;2.90;;;1.20;99.90;;;;;;5029509;28;20128;-83
2022/04/11 05:23:07;;;;;;;5.50;2.28;;;1.10;99.90;;;;;;5029290;28;20495;-84
2022/04/11 05:25:33;;;;;;;3.47;2.00;;;1.10;99.90;;;;;;5012733;28;20099;-84
2022/04/11 05:27:59;;;;;;;8.23;2.85;;;1.20;99.90;;;;;;5013464;28;20042;-84
2022/04/11 05:30:25;;;;;;;3.80;2.30;;;1.30;99.90;;;;;;5031237;28;20053;-85
2022/04/11 05:32:50;;;;;;;4.72;2.63;;;1.20;99.90;;;;;;4999199;28;20498;-86
2022/04/11 05:35:16;;;;;;;4.95;2.75;;;1.30;99.90;;;;;;5012195;28;20041;-87
2022/04/11 05:37:42;;;;;;;5.07;2.05;;;1.30;99.90;;;;;;5031443;28;20037;-85
2022/04/11 05:40:11;;;;;;;5.20;1.95;;;1.30;99.90;;;;;;5028914;28;20038;-84
2022/04/11 05:42:37;;;;;;;4.10;1.92;;;1.40;99.90;;;;;;5039196;28;20037;-88
2022/04/11 05:45:06;;;;;;;3.05;1.70;;;1.50;99.90;;;;;;5032318;28;20376;-87
2022/04/11 05:47:32;;;;;;;3.80;2.00;;;1.40;99.90;;;;;;5024785;28;20164;-88
2022/04/11 05:49:57;;;;;;;8.18;2.40;;;1.50;99.90;;;;;;5022559;28;20494;-88
2022/04/11 05:52:23;;;;;;;5.63;2.17;;;1.60;99.90;;;;;;5015896;28;20049;-87
2022/04/11 05:54:49;;;;;;;6.85;2.30;;;1.60;99.90;;;;;;5032775;28;20533;-87
2022/04/11 05:57:15;;;;;;;4.35;1.90;;;1.60;99.90;;;;;;5015190;28;20509;-88
2022/04/11 05:59:41;;;;;;;4.15;2.05;;;1.70;99.90;;;;;;5009837;28;20104;-82
2022/04/11 06:02:09;;;;;;;4.35;1.70;;;1.80;99.90;;;;;;4995893;28;20077;-82
2022/04/11 06:04:37;;;;;;;7.30;3.15;;;1.80;99.90;;;;;;4987387;28;20127;-80
2022/04/11 06:07:04;;;;;;;4.03;2.03;;;1.90;99.90;;;;;;5012936;28;20072;-80
2022/04/11 06:09:30;;;;;;;6.72;2.70;;;1.90;99.90;;;;;;4994061;28;20048;-81
2022/04/11 06:11:56;;;;;;;4.57;2.00;;;2.00;99.90;;;;;;5026572;28;20076;-82
2022/04/11 06:14:22;;;;;;;17.63;8.98;;;2.10;99.90;;;;;;4993087;28;20052;-81
2022/04/11 06:16:47;;;;;;;114.70;68.63;;;2.10;99.90;;;;;;5004810;28;20406;-80
2022/04/11 06:19:13;;;;;;;52.30;35.92;;;2.20;99.90;;;;;;5029359;28;20076;-82
2022/04/11 06:21:39;;;;;;;11.02;5.00;;;2.20;99.90;;;;;;5029180;28;20053;-81
2022/04/11 06:24:05;;;;;;;5.00;2.90;;;2.30;99.90;;;;;;5012008;28;20045;-80
2022/04/11 06:26:31;;;;;;;13.65;8.75;;;2.40;99.90;;;;;;5009149;28;20037;-82
2022/04/11 06:28:57;;;;;;;13.60;7.10;;;2.50;99.90;;;;;;4998281;28;20791;-80
2022/04/11 06:31:22;;;;;;;8.13;5.18;;;2.60;99.90;;;;;;5012492;28;20049;-80
2022/04/11 06:33:48;;;;;;;6.30;3.88;;;2.60;99.90;;;;;;5027809;28;20153;-81
2022/04/11 06:36:14;;;;;;;5.57;2.53;;;2.70;99.90;;;;;;5012716;28;20042;-83
2022/04/11 06:38:39;;;;;;;10.43;7.72;;;2.80;99.90;;;;;;5012947;28;20048;-81
2022/04/11 06:41:05;;;;;;;27.73;22.75;;;2.90;99.90;;;;;;5010885;28;20096;-81
2022/04/11 06:43:31;;;;;;;17.95;9.75;;;2.90;99.90;;;;;;5029512;28;20056;-81
2022/04/11 06:45:56;;;;;;;26.90;21.58;;;3.00;99.90;;;;;;4993224;28;20046;-81
2022/04/11 06:48:22;;;;;;;26.60;20.45;;;3.00;99.90;;;;;;5011710;28;20510;-81
2022/04/11 06:50:50;;;;;;;22.75;17.20;;;3.30;99.90;;;;;;5009795;28;20041;-80
2022/04/11 06:53:16;;;;;;;17.60;11.80;;;3.30;99.90;;;;;;5004631;28;20050;-84
2022/04/11 06:55:44;;;;;;;6.32;3.78;;;3.40;99.90;;;;;;5006575;28;20045;-81
2022/04/11 06:58:10;;;;;;;9.95;4.30;;;3.60;99.90;;;;;;5029820;28;20092;-81
2022/04/11 07:00:35;;;;;;;6.32;3.83;;;3.70;99.90;;;;;;5029457;28;20077;-81
2022/04/11 07:03:01;;;;;;;8.48;5.57;;;3.80;99.90;;;;;;5012840;28;20049;-81
2022/04/11 07:05:27;;;;;;;7.63;5.25;;;3.90;99.90;;;;;;5026144;28;20607;-81
2022/04/11 07:07:52;;;;;;;11.77;7.25;;;4.00;99.90;;;;;;5028587;28;20076;-82
2022/04/11 07:10:18;;;;;;;6.45;3.88;;;4.10;99.90;;;;;;5011616;28;20118;-84
2022/04/11 07:12:44;;;;;;;6.72;4.00;;;4.30;99.90;;;;;;5012832;28;20269;-81
2022/04/11 07:15:10;;;;;;;9.25;4.22;;;4.50;99.90;;;;;;5022248;28;20667;-81
2022/04/11 07:17:35;;;;;;;8.90;4.10;;;4.50;99.90;;;;;;5003035;28;20049;-81
2022/04/11 07:20:02;;;;;;;13.68;7.75;;;4.80;99.90;;;;;;4996902;28;20056;-82
2022/04/11 07:22:28;;;;;;;9.95;7.20;;;4.80;99.90;;;;;;5012522;28;20045;-81
2022/04/11 07:24:54;;;;;;;10.00;6.55;;;5.00;99.90;;;;;;5005061;28;20800;-81
2022/04/11 07:27:20;;;;;;;9.70;4.28;;;5.10;99.90;;;;;;4979298;28;20045;-83
2022/04/11 07:29:46;;;;;;;5.90;3.90;;;5.30;99.90;;;;;;5026923;28;20139;-81
2022/04/11 07:32:11;;;;;;;7.93;3.97;;;5.40;99.90;;;;;;5016568;28;20056;-81
2022/04/11 07:34:37;;;;;;;7.97;5.40;;;5.50;99.90;;;;;;4998888;28;20615;-80
2022/04/11 07:37:04;;;;;;;9.50;4.63;;;5.70;99.90;;;;;;5012902;28;20053;-81
2022/04/11 07:39:30;;;;;;;8.38;4.53;;;5.90;99.90;;;;;;5012574;28;20049;-82
2022/04/11 07:41:56;;;;;;;5.72;4.10;;;6.00;99.90;;;;;;5012917;28;20052;-82
2022/04/11 07:44:22;;;;;;;9.70;4.80;;;6.20;99.90;;;;;;4995523;28;20542;-81
2022/04/11 07:46:48;;;;;;;6.55;4.32;;;6.40;99.90;;;;;;5028925;28;20494;-82
2022/04/11 07:49:13;;;;;;;17.38;7.82;;;6.50;99.90;;;;;;4995010;28;20099;-81
2022/04/11 07:51:39;;;;;;;35.70;14.90;;;6.70;99.90;;;;;;5034496;28;20041;-81
2022/04/11 07:54:05;;;;;;;20.30;9.32;;;7.00;99.90;;;;;;5000574;28;20042;-81
2022/04/11 07:56:31;;;;;;;8.10;4.55;;;7.20;99.90;;;;;;5008697;28;20050;-82
2022/04/11 07:58:57;;;;;;;11.98;7.20;;;7.40;99.90;;;;;;5003189;28;20033;-82
2022/04/11 08:01:24;;;;;;;10.65;6.18;;;7.60;99.90;;;;;;5024770;28;20138;-82
2022/04/11 08:03:50;;;;;;;31.23;16.55;;;7.70;99.90;;;;;;5000456;28;20558;-81
2022/04/11 08:06:16;;;;;;;26.13;12.65;;;7.90;99.90;;;;;;4989809;28;20048;-82
2022/04/11 08:08:44;;;;;;;16.38;9.18;;;8.10;99.90;;;;;;5005594;28;20064;-84
2022/04/11 08:11:14;;;;;;;8.68;5.93;;;8.20;99.90;;;;;;5012174;28;20337;-81
2022/04/11 08:13:40;;;;;;;15.38;8.32;;;8.40;99.90;;;;;;5006901;28;20049;-81
2022/04/11 08:16:06;;;;;;;9.38;4.63;;;8.50;99.90;;;;;;5029814;28;20522;-81
2022/04/11 08:18:32;;;;;;;8.70;5.72;;;8.60;99.90;;;;;;5024257;28;20505;-81
2022/04/11 08:20:58;;;;;;;11.85;7.32;;;8.70;99.90;;;;;;5032940;28;20042;-81
2022/04/11 08:23:23;;;;;;;7.75;4.60;;;8.80;99.90;;;;;;5034659;28;20072;-81
2022/04/11 08:25:49;;;;;;;11.77;5.00;;;8.90;99.90;;;;;;5012512;28;20046;-81
2022/04/11 08:28:16;;;;;;;10.32;5.95;;;9.00;99.90;;;;;;4994858;28;20111;-82
2022/04/11 08:30:42;;;;;;;9.98;5.90;;;9.10;99.90;;;;;;4994506;28;20132;-81
2022/04/11 08:33:07;;;;;;;9.38;5.68;;;9.10;99.90;;;;;;5011349;28;20129;-82
2022/04/11 08:35:33;;;;;;;8.05;4.45;;;9.10;99.90;;;;;;5007299;28;20057;-81
2022/04/11 08:37:59;;;;;;;13.82;7.85;;;9.00;99.90;;;;;;4998370;28;20050;-81
2022/04/11 08:40:25;;;;;;;13.80;7.93;;;8.90;99.90;;;;;;5008644;28;20053;-81
2022/04/11 08:42:51;;;;;;;9.35;5.35;;;8.80;99.90;;;;;;5024085;28;20487;-81
2022/04/11 08:45:21;;;;;;;10.27;5.15;;;8.70;99.90;;;;;;5003236;28;20037;-80
2022/04/11 08:47:48;;;;;;;9.45;5.72;;;8.50;99.90;;;;;;5027966;28;20041;-83
2022/04/11 08:50:14;;;;;;;11.70;6.68;;;8.40;99.90;;;;;;4998375;28;20106;-81
2022/04/11 08:52:41;;;;;;;16.17;8.10;;;8.20;99.90;;;;;;5006619;28;20049;-81
2022/04/11 08:55:08;;;;;;;6.45;3.92;;;8.20;99.90;;;;;;5011864;28;20073;-82
2022/04/11 08:57:37;;;;;;;13.35;7.90;;;8.10;99.90;;;;;;5023572;28;20045;-82
2022/04/11 09:00:09;;;;;;;9.70;4.43;;;8.20;99.90;;;;;;5012056;28;20045;-81
2022/04/11 09:02:35;;;;;;;8.05;4.60;;;8.30;99.90;;;;;;5027357;28;20065;-83
2022/04/11 09:05:02;;;;;;;9.70;3.78;;;8.40;99.90;;;;;;5031268;28;20048;-82
2022/04/11 09:07:45;;;;;;;6.60;4.18;;;8.50;99.90;;;;;;4995589;28;20124;-82
2022/04/11 09:10:12;;;;;;;9.00;4.50;;;8.60;99.90;;;;;;5011697;28;20073;-81
2022/04/11 09:12:52;;;;;;;7.43;3.70;;;8.70;99.90;;;;;;5030465;28;20057;-83
2022/04/11 09:15:18;;;;;;;7.88;3.28;;;8.90;99.90;;;;;;5032422;28;20057;-82
2022/04/11 09:17:46;;;;;;;6.57;3.38;;;9.10;99.90;;;;;;5014848;28;20050;-81
2022/04/11 09:20:21;;;;;;;5.97;3.10;;;9.30;99.90;;;;;;4999568;28;20069;-82
2022/04/11 09:22:48;;;;;;;6.45;2.95;;;9.50;99.90;;;;;;5012913;28;20053;-82
2022/04/11 09:25:21;;;;;;;4.45;2.63;;;9.80;99.90;;;;;;5031520;28;20072;-82
2022/04/11 09:27:50;;;;;;;4.68;2.80;;;10.10;99.90;;;;;;5027533;28;20060;-84
2022/04/11 09:30:19;;;;;;;5.68;2.85;;;11.10;99.90;;;;;;5031628;28;20132;-82
2022/04/11 09:32:57;;;;;;;6.75;3.10;;;12.60;99.90;;;;;;5015243;28;20053;-81
2022/04/11 09:35:24;;;;;;;8.45;3.90;;;14.20;99.90;;;;;;5022392;28;20136;-82
2022/04/11 09:38:15;;;;;;;6.05;3.03;;;15.50;99.90;;;;;;5030584;28;20050;-82
2022/04/11 09:40:51;;;;;;;6.18;2.40;;;16.50;78.80;;;;;;5030996;28;20533;-82
2022/04/11 09:43:24;;;;;;;3.70;2.15;;;17.10;76.50;;;;;;5031605;28;20053;-82
2022/04/11 09:45:53;;;;;;;5.82;2.47;;;17.70;83.90;;;;;;5028070;28;20076;-83
2022/04/11 09:48:30;;;;;;;9.85;2.83;;;18.20;73.30;;;;;;5031022;28;20430;-84
2022/04/11 09:51:00;;;;;;;4.05;2.28;;;18.70;66.30;;;;;;5014062;28;20057;-81
2022/04/11 09:53:35;;;;;;;3.90;2.10;;;19.10;66.90;;;;;;5030793;28;20079;-85
2022/04/11 09:56:03;;;;;;;6.55;2.90;;;19.60;56.80;;;;;;5013102;28;20045;-83
2022/04/11 09:58:32;;;;;;;5.45;2.00;;;19.70;58.30;;;;;;5028130;28;20449;-83
2022/04/11 10:01:00;;;;;;;3.78;1.90;;;19.90;56.90;;;;;;5028494;28;20452;-82
2022/04/11 10:03:27;;;;;;;4.55;2.17;;;20.10;54.20;;;;;;5028680;28;20042;-86
2022/04/11 10:05:54;;;;;;;5.43;2.80;;;20.00;50.90;;;;;;5029125;28;20057;-82
2022/04/11 10:08:24;;;;;;;8.48;2.70;;;20.00;51.10;;;;;;5013672;28;20087;-83
2022/04/11 10:10:51;;;;;;;3.38;1.80;;;20.30;49.30;;;;;;5040332;28;20049;-82
2022/04/11 10:13:17;;;;;;;4.55;2.03;;;20.60;50.40;;;;;;5013053;28;20480;-82
2022/04/11 10:15:51;;;;;;;4.53;1.90;;;20.60;47.80;;;;;;5010160;28;20057;-82
2022/04/11 10:18:24;;;;;;;3.15;2.13;;;21.00;47.10;;;;;;4998906;28;20050;-83
2022/04/11 10:21:17;;;;;;;5.10;2.17;;;21.00;44.50;;;;;;5013848;28;20076;-82
2022/04/11 10:24:05;;;;;;;5.18;2.30;;;21.30;45.90;;;;;;5007585;28;20073;-81
2022/04/11 10:26:44;;;;;;;4.13;2.22;;;21.40;42.30;;;;;;5010664;28;20046;-84
2022/04/11 10:29:36;;;;;;;3.35;2.08;;;21.50;42.10;;;;;;5011084;28;20046;-82
2022/04/11 10:32:06;;;;;;;4.50;2.30;;;21.70;36.40;;;;;;5011113;28;20133;-82
2022/04/11 10:34:52;;;;;;;4.82;2.60;;;21.90;41.10;;;;;;5009831;28;20095;-84
2022/04/11 10:37:18;;;;;;;;;;;22.10;40.50;;;;;;5020556;28;20088;-83
2022/04/11 10:39:45;;;;;;;3.22;2.20;;;22.10;39.50;;;;;;5003951;28;19925;-84
2022/04/11 10:42:23;;;;;;;5.20;2.15;;;22.50;45.90;;;;;;5031194;28;20080;-82
2022/04/11 10:44:56;;;;;;;5.22;2.20;;;23.20;41.90;;;;;;5028619;28;20136;-82
2022/04/11 10:47:29;;;;;;;5.68;2.05;;;23.50;39.60;;;;;;5031266;28;20041;-82
2022/04/11 10:49:55;;;;;;;9.07;2.22;;;23.40;38.60;;;;;;5015278;28;20052;-83
2022/04/11 10:52:35;;;;;;;5.55;2.40;;;23.40;38.20;;;;;;5020710;28;20049;-82
2022/04/11 10:55:15;;;;;;;3.17;1.98;;;23.60;34.60;;;;;;5030580;28;20505;-84
2022/04/11 10:57:42;;;;;;;7.90;2.20;;;23.40;34.50;;;;;;5029612;28;20399;-82
2022/04/11 11:00:27;;;;;;;3.90;2.10;;;23.40;36.10;;;;;;5028402;28;20406;-84
2022/04/11 11:05:38;;;;;;;5.30;2.53;;;23.50;35.70;;;;;;5011785;28;20050;-83
2022/04/11 11:08:09;;;;;;;4.30;2.83;;;23.90;35.10;;;;;;5010161;28;20050;-82
2022/04/11 11:10:41;;;;;;;9.73;6.18;;;24.20;35.30;;;;;;5024755;28;20081;-81
2022/04/11 11:13:27;;;;;;;8.20;3.72;;;24.30;33.60;;;;;;5028775;28;20049;-83
2022/04/11 11:16:11;;;;;;;5.05;2.38;;;24.20;32.40;;;;;;5010772;28;20053;-82
2022/04/11 11:18:46;;;;;;;9.00;4.43;;;24.20;31.90;;;;;;5012185;28;20045;-82
2022/04/11 11:21:16;;;;;;;3.60;2.35;;;24.20;32.80;;;;;;5014340;28;20445;-83
2022/04/11 11:24:15;;;;;;;9.90;7.00;;;24.50;33.90;;;;;;5023532;28;20558;-82
2022/04/11 11:26:53;;;;;;;4.78;3.47;;;24.80;34.20;;;;;;4965533;28;20411;-82
2022/04/11 11:29:27;;;;;;;6.70;4.05;;;24.90;31.90;;;;;;5020369;28;20052;-84
2022/04/11 11:31:56;;;;;;;4.32;3.67;;;25.00;32.20;;;;;;5008121;28;20050;-83
2022/04/11 11:34:27;;;;;;;6.95;4.50;;;25.30;32.80;;;;;;5008727;28;20053;-82
2022/04/11 11:37:13;;;;;;;5.18;3.28;;;25.50;32.20;;;;;;5027085;28;20073;-83
2022/04/11 11:39:40;;;;;;;5.25;3.00;;;25.80;32.20;;;;;;5022117;28;20764;-82
2022/04/11 11:42:11;;;;;;;4.03;2.35;;;25.80;30.90;;;;;;4993458;28;20103;-82
2022/04/11 11:44:51;;;;;;;8.52;3.08;;;25.80;29.80;;;;;;5007246;28;20765;-82
2022/04/11 11:47:25;;;;;;;5.32;2.85;;;26.00;29.00;;;;;;5013201;28;20061;-82
2022/04/11 11:49:51;;;;;;;5.45;3.13;;;25.90;30.00;;;;;;5010486;28;20049;-83
2022/04/11 11:52:21;;;;;;;4.38;2.88;;;25.80;29.70;;;;;;4993082;28;20363;-82
2022/04/11 11:54:48;;;;;;;5.88;3.70;;;25.50;30.10;;;;;;5009353;28;20474;-82
2022/04/11 11:57:17;;;;;;;8.30;5.57;;;25.70;31.10;;;;;;5012994;28;20049;-82
2022/04/11 12:00:06;;;;;;;9.50;5.18;;;26.20;30.10;;;;;;4995757;28;20483;-82
2022/04/11 12:05:28;;;;;;;15.02;9.00;;;27.50;29.70;;;;;;5039012;28;20514;-84
2022/04/11 12:08:08;;;;;;;5.38;3.47;;;27.80;29.10;;;;;;5015859;28;20132;-82
2022/04/11 12:10:35;;;;;;;3.90;3.10;;;27.70;28.70;;;;;;4997541;28;20053;-85
2022/04/11 12:13:01;;;;;;;8.98;6.35;;;27.70;29.00;;;;;;5013070;28;20053;-82
2022/04/11 12:15:34;;;;;;;5.15;3.55;;;27.80;28.80;;;;;;5011964;28;20498;-82
2022/04/11 12:18:06;;;;;;;6.03;3.70;;;27.70;26.40;;;;;;5026142;28;20042;-82
2022/04/11 12:20:33;;;;;;;5.40;3.40;;;27.40;28.20;;;;;;4993354;28;20134;-81
2022/04/11 12:23:11;;;;;;;6.43;4.28;;;27.40;28.40;;;;;;5026569;28;20048;-82
2022/04/11 12:25:51;;;;;;;5.85;3.17;;;27.40;27.60;;;;;;5037886;28;20041;-85
2022/04/11 12:28:28;;;;;;;7.00;3.40;;;27.70;27.30;;;;;;5029112;28;20050;-82
2022/04/11 12:31:02;;;;;;;3.95;3.00;;;27.40;25.60;;;;;;5043205;28;20049;-82
2022/04/11 12:33:49;;;;;;;6.70;3.97;;;27.00;26.60;;;;;;5033750;28;20137;-83
2022/04/11 12:36:26;;;;;;;6.72;3.30;;;26.90;25.80;;;;;;5012848;28;20050;-81
2022/04/11 12:38:56;;;;;;;5.13;3.42;;;26.90;27.40;;;;;;5029092;28;20053;-81
2022/04/11 12:41:29;;;;;;;4.68;3.90;;;27.00;26.50;;;;;;5016375;28;20437;-81
2022/04/11 12:44:19;;;;;;;8.27;4.18;;;27.30;26.20;;;;;;5032436;28;20063;-82
2022/04/11 12:46:47;;;;;;;5.07;3.67;;;27.50;26.00;;;;;;5018115;28;20500;-82
2022/04/11 12:49:15;;;;;;;8.23;5.72;;;27.30;26.70;;;;;;5008692;28;20057;-82
2022/04/11 12:51:42;;;;;;;9.95;4.07;;;27.20;27.20;;;;;;5012177;28;20480;-82
2022/04/11 12:54:13;;;;;;;7.55;3.65;;;27.30;27.60;;;;;;5022649;28;20509;-84
2022/04/11 12:56:41;;;;;;;5.10;4.30;;;27.10;26.80;;;;;;5015527;28;20123;-84
2022/04/11 12:59:08;;;;;;;4.78;3.85;;;27.40;26.30;;;;;;5012025;28;20034;-82
2022/04/11 13:01:50;;;;;;;8.40;5.93;;;27.40;26.70;;;;;;5014856;28;20513;-83